Time;durP1;ratioP1;P1;durP2;ratioP2;P2;SDS_P1;SDS_P2;PMS_P1;PMS_P2;Temp;Humidity;BMP_temperature;BMP_pressure;BME280_temperature;BME280_humidity;BME280_pressure;Samples;Min_cycle;Max_cycle;Signal;HPM_P1;HPM_P2
2020/12/11 00:00:19;;;;;;;27.20;16.57;;;3.60;99.90;;;;;;5035906;28;20211;-92
2020/12/11 00:02:45;;;;;;;27.70;17.73;;;3.50;99.90;;;;;;5026414;28;20173;-92
2020/12/11 00:05:11;;;;;;;28.03;18.07;;;3.50;99.90;;;;;;5022811;28;20180;-92
2020/12/11 00:07:38;;;;;;;28.37;18.27;;;3.60;99.90;;;;;;5023034;28;20223;-92
2020/12/11 00:10:09;;;;;;;31.40;17.83;;;3.50;99.90;;;;;;5043277;28;20286;-92
2020/12/11 00:12:36;;;;;;;31.77;17.97;;;3.50;99.90;;;;;;5035358;28;20224;-91
2020/12/11 00:15:03;;;;;;;31.17;16.77;;;3.60;99.90;;;;;;5059010;28;20224;-93
2020/12/11 00:17:29;;;;;;;26.30;17.40;;;3.50;99.90;;;;;;5032645;28;20171;-93
2020/12/11 00:19:55;;;;;;;31.50;18.00;;;3.40;99.90;;;;;;5021596;28;20244;-93
2020/12/11 00:22:22;;;;;;;29.43;18.53;;;3.30;99.90;;;;;;5005394;28;20203;-92
2020/12/11 00:24:52;;;;;;;29.17;17.60;;;3.30;99.90;;;;;;5007797;28;20179;-92
2020/12/11 00:27:18;;;;;;;27.37;16.77;;;3.40;99.90;;;;;;5022282;28;20263;-93
2020/12/11 00:29:44;;;;;;;30.07;17.10;;;3.40;99.90;;;;;;5021975;28;20204;-94
2020/12/11 00:32:09;;;;;;;27.20;18.00;;;3.40;99.90;;;;;;5001396;28;20243;-94
2020/12/11 00:34:36;;;;;;;28.40;17.70;;;3.50;99.90;;;;;;4985750;28;20197;-92
2020/12/11 00:37:02;;;;;;;28.47;17.00;;;3.60;99.90;;;;;;4984309;28;20185;-94
2020/12/11 00:39:28;;;;;;;27.53;17.17;;;3.50;99.90;;;;;;5002303;28;20181;-93
2020/12/11 00:41:54;;;;;;;26.87;17.40;;;3.60;99.90;;;;;;5029672;28;20642;-93
2020/12/11 00:44:20;;;;;;;30.37;18.37;;;3.50;99.90;;;;;;4988268;28;20613;-92
2020/12/11 00:46:46;;;;;;;28.90;17.57;;;3.50;99.90;;;;;;5021047;28;20195;-94
2020/12/11 00:49:12;;;;;;;28.77;18.13;;;3.60;99.90;;;;;;4989054;28;20208;-92
2020/12/11 00:51:38;;;;;;;28.43;17.57;;;3.50;99.90;;;;;;4988534;28;20251;-94
2020/12/11 00:54:03;;;;;;;30.47;19.10;;;3.50;99.90;;;;;;5022747;28;20722;-93
2020/12/11 00:56:29;;;;;;;28.23;16.60;;;3.30;99.90;;;;;;5004042;28;20259;-94
2020/12/11 00:58:55;;;;;;;27.27;17.80;;;3.40;99.90;;;;;;4985215;28;20187;-94
2020/12/11 01:01:21;;;;;;;31.57;18.13;;;3.30;99.90;;;;;;5001991;28;20175;-91
2020/12/11 01:03:50;;;;;;;31.00;18.27;;;3.40;99.90;;;;;;4984381;28;20180;-94
2020/12/11 01:06:15;;;;;;;27.17;17.30;;;3.30;99.90;;;;;;5027098;28;20176;-92
2020/12/11 01:08:41;;;;;;;32.73;18.80;;;3.30;99.90;;;;;;5019105;28;20172;-93
2020/12/11 01:11:07;;;;;;;28.57;17.57;;;3.40;99.90;;;;;;5019831;28;20341;-93
2020/12/11 01:13:33;;;;;;;26.03;17.37;;;3.30;99.90;;;;;;5019511;28;20689;-94
2020/12/11 01:15:59;;;;;;;26.83;17.13;;;3.30;99.90;;;;;;5019076;28;20216;-92
2020/12/11 01:18:24;;;;;;;30.63;17.93;;;3.30;99.90;;;;;;5019299;28;20168;-93
2020/12/11 01:20:50;;;;;;;26.90;17.23;;;3.30;99.90;;;;;;5001781;28;20199;-94
2020/12/11 01:23:16;;;;;;;29.90;16.97;;;3.20;99.90;;;;;;5018397;28;20180;-94
2020/12/11 01:25:41;;;;;;;24.67;16.00;;;3.20;99.90;;;;;;5018297;28;20168;-93
2020/12/11 01:28:07;;;;;;;26.80;17.27;;;3.30;99.90;;;;;;4999038;28;20176;-93
2020/12/11 01:30:32;;;;;;;29.80;17.50;;;3.40;99.90;;;;;;5015387;28;20219;-94
2020/12/11 01:32:58;;;;;;;29.77;18.13;;;3.30;99.90;;;;;;4982995;28;20215;-91
2020/12/11 01:35:24;;;;;;;27.93;15.93;;;3.30;99.90;;;;;;5014735;28;20193;-92
2020/12/11 01:37:50;;;;;;;24.00;15.20;;;3.30;99.90;;;;;;5014294;28;20514;-92
2020/12/11 01:40:16;;;;;;;25.83;16.83;;;3.30;99.90;;;;;;4985022;28;20250;-92
2020/12/11 01:42:42;;;;;;;27.17;16.37;;;3.30;99.90;;;;;;5001646;28;20180;-92
2020/12/11 01:45:08;;;;;;;28.73;17.80;;;3.40;99.90;;;;;;5018126;28;20259;-91
2020/12/11 01:47:40;;;;;;;28.47;17.33;;;3.30;99.90;;;;;;5035216;28;20176;-92
2020/12/11 01:50:18;;;;;;;27.53;16.73;;;3.50;99.90;;;;;;5017282;28;20204;-92
2020/12/11 01:52:48;;;;;;;26.30;16.90;;;3.50;99.90;;;;;;5002505;28;20225;-92
2020/12/11 01:55:14;;;;;;;22.60;15.77;;;3.60;99.90;;;;;;5017933;28;20206;-93
2020/12/11 01:58:01;;;;;;;24.37;16.10;;;3.70;99.90;;;;;;5018003;28;20188;-92
2020/12/11 02:00:28;;;;;;;27.80;16.23;;;3.70;99.90;;;;;;5017861;28;20191;-90
2020/12/11 02:03:05;;;;;;;23.63;15.73;;;3.70;99.90;;;;;;5034230;28;20168;-93
2020/12/11 02:05:31;;;;;;;22.73;15.37;;;3.80;99.90;;;;;;5033928;28;20563;-92
2020/12/11 02:07:58;;;;;;;24.57;16.67;;;3.80;99.90;;;;;;5001140;28;20180;-94
2020/12/11 02:10:23;;;;;;;26.77;16.50;;;3.80;99.90;;;;;;5001179;28;20661;-95
2020/12/11 02:12:49;;;;;;;22.07;15.23;;;3.90;99.90;;;;;;5017623;28;20187;-92
2020/12/11 02:15:15;;;;;;;25.37;15.77;;;3.80;99.90;;;;;;5017495;28;20573;-92
2020/12/11 02:17:41;;;;;;;24.40;17.37;;;3.80;99.90;;;;;;5017754;28;20183;-92
2020/12/11 02:20:06;;;;;;;25.23;16.43;;;3.90;99.90;;;;;;5000771;28;20223;-92
2020/12/11 02:22:32;;;;;;;26.13;16.03;;;4.00;99.90;;;;;;5034244;28;20168;-93
2020/12/11 02:24:58;;;;;;;22.13;14.93;;;4.00;99.90;;;;;;5037190;28;20176;-91
2020/12/11 02:27:23;;;;;;;21.33;14.87;;;4.00;99.90;;;;;;4997979;28;20176;-91
2020/12/11 02:29:49;;;;;;;26.20;16.07;;;4.10;99.90;;;;;;4985981;28;20231;-91
2020/12/11 02:32:14;;;;;;;24.57;15.00;;;4.10;99.90;;;;;;5001588;28;20172;-92
2020/12/11 02:34:44;;;;;;;23.00;15.60;;;4.10;99.90;;;;;;5017506;28;20183;-92
2020/12/11 02:37:11;;;;;;;24.87;14.63;;;4.10;99.90;;;;;;5017653;28;20176;-92
2020/12/11 02:39:37;;;;;;;22.47;15.67;;;4.20;99.90;;;;;;5027587;28;20180;-92
2020/12/11 02:42:03;;;;;;;23.33;15.20;;;4.10;99.90;;;;;;5000177;28;20187;-92
2020/12/11 02:44:29;;;;;;;22.37;15.63;;;4.10;99.90;;;;;;4996635;28;20638;-93
2020/12/11 02:46:55;;;;;;;26.17;15.60;;;4.10;99.90;;;;;;5017644;28;20172;-92
2020/12/11 02:49:20;;;;;;;23.90;15.33;;;4.20;99.90;;;;;;5034633;28;20215;-92
2020/12/11 02:51:46;;;;;;;25.23;15.47;;;4.30;99.90;;;;;;5001485;28;20172;-92
2020/12/11 02:54:12;;;;;;;23.73;14.97;;;4.40;99.90;;;;;;5001428;28;20585;-93
2020/12/11 02:56:37;;;;;;;22.27;14.87;;;4.30;99.90;;;;;;5001963;28;20172;-92
2020/12/11 02:59:03;;;;;;;22.43;14.83;;;4.40;99.90;;;;;;5001338;28;20267;-92
2020/12/11 03:01:28;;;;;;;25.87;15.13;;;4.40;99.90;;;;;;5002117;28;20187;-92
2020/12/11 03:03:58;;;;;;;22.50;14.73;;;4.40;99.90;;;;;;5039128;28;20614;-93
2020/12/11 03:06:28;;;;;;;27.87;14.90;;;4.30;99.90;;;;;;5039605;28;20605;-92
2020/12/11 03:08:55;;;;;;;21.93;13.70;;;4.40;99.90;;;;;;5039855;28;20262;-91
2020/12/11 03:11:21;;;;;;;22.20;15.10;;;4.50;99.90;;;;;;5038526;28;20288;-93
2020/12/11 03:13:46;;;;;;;20.80;13.87;;;4.60;99.90;;;;;;5037421;28;20238;-93
2020/12/11 03:16:13;;;;;;;20.47;13.83;;;4.70;99.90;;;;;;5020777;28;20207;-92
2020/12/11 03:18:38;;;;;;;20.13;13.73;;;4.70;99.90;;;;;;5020847;28;20207;-92
2020/12/11 03:21:04;;;;;;;21.80;14.47;;;4.70;99.90;;;;;;5021073;28;20585;-93
2020/12/11 03:23:30;;;;;;;19.77;14.33;;;4.70;99.90;;;;;;5020751;28;20168;-93
2020/12/11 03:25:56;;;;;;;21.93;13.80;;;4.60;99.90;;;;;;5038140;28;20164;-92
2020/12/11 03:28:21;;;;;;;21.63;14.57;;;4.60;99.90;;;;;;5041868;28;20172;-93
2020/12/11 03:30:47;;;;;;;23.23;15.30;;;4.50;99.90;;;;;;5020335;28;20668;-93
2020/12/11 03:33:13;;;;;;;23.53;15.70;;;4.40;99.90;;;;;;5004180;28;20180;-93
2020/12/11 03:35:38;;;;;;;26.70;15.53;;;4.30;99.90;;;;;;5029663;28;20175;-93
2020/12/11 03:38:04;;;;;;;27.80;15.97;;;4.30;99.90;;;;;;5026053;28;20163;-93
2020/12/11 03:40:30;;;;;;;23.33;15.30;;;4.30;99.90;;;;;;5043002;28;20196;-93
2020/12/11 03:42:56;;;;;;;22.90;15.00;;;4.20;99.90;;;;;;5026262;28;20215;-93
2020/12/11 03:45:21;;;;;;;29.17;16.20;;;4.20;99.90;;;;;;5042206;28;20153;-93
2020/12/11 03:47:47;;;;;;;24.83;14.63;;;4.20;99.90;;;;;;5043823;28;20172;-92
2020/12/11 03:50:13;;;;;;;26.63;15.53;;;4.40;99.90;;;;;;5027546;28;20230;-92
2020/12/11 03:52:38;;;;;;;24.73;14.20;;;4.50;99.90;;;;;;5043552;28;20153;-93
2020/12/11 03:55:04;;;;;;;27.10;15.73;;;4.40;99.90;;;;;;5060797;28;20157;-93
2020/12/11 03:57:30;;;;;;;25.43;14.80;;;4.50;99.90;;;;;;5035796;28;20176;-93
2020/12/11 03:59:55;;;;;;;24.00;15.53;;;4.50;99.90;;;;;;5006876;28;20187;-94
2020/12/11 04:02:21;;;;;;;26.10;15.67;;;4.50;99.90;;;;;;5021799;28;20168;-94
2020/12/11 04:04:47;;;;;;;25.53;15.07;;;4.50;99.90;;;;;;5004877;28;20184;-93
2020/12/11 04:07:13;;;;;;;23.33;14.63;;;4.60;99.90;;;;;;5020915;28;20191;-93
2020/12/11 04:09:39;;;;;;;23.33;14.97;;;4.70;99.90;;;;;;5004966;28;20204;-94
2020/12/11 04:12:05;;;;;;;23.27;14.90;;;4.80;99.90;;;;;;5038177;28;20168;-93
2020/12/11 04:14:31;;;;;;;18.47;13.87;;;4.70;99.90;;;;;;5003489;28;20168;-92
2020/12/11 04:17:00;;;;;;;26.20;15.23;;;4.80;99.90;;;;;;5003783;28;20179;-94
2020/12/11 04:19:27;;;;;;;20.33;13.90;;;4.80;99.90;;;;;;5003774;28;20719;-93
2020/12/11 04:21:53;;;;;;;17.40;13.23;;;4.80;99.90;;;;;;5003790;28;20176;-93
2020/12/11 04:24:21;;;;;;;20.50;13.30;;;5.00;99.90;;;;;;5000530;28;20176;-94
2020/12/11 04:26:47;;;;;;;22.33;14.57;;;5.10;99.90;;;;;;5016657;28;20172;-94
2020/12/11 04:29:12;;;;;;;19.00;13.80;;;5.20;99.90;;;;;;5016409;28;20690;-93
2020/12/11 04:31:38;;;;;;;24.07;14.33;;;5.10;99.90;;;;;;5017789;28;20169;-94
2020/12/11 04:34:04;;;;;;;20.70;13.77;;;5.10;99.90;;;;;;5016417;28;20203;-94
2020/12/11 04:36:30;;;;;;;18.40;13.73;;;4.90;99.90;;;;;;5019232;28;20168;-92
2020/12/11 04:38:56;;;;;;;20.60;13.07;;;4.90;99.90;;;;;;5019479;28;20168;-94
2020/12/11 04:41:27;;;;;;;19.90;13.47;;;4.80;99.90;;;;;;5019411;28;20267;-94
2020/12/11 04:43:56;;;;;;;21.03;13.90;;;4.70;99.90;;;;;;5019715;28;20525;-94
2020/12/11 04:46:28;;;;;;;21.03;13.87;;;4.80;99.90;;;;;;5019196;28;20624;-94
2020/12/11 04:48:55;;;;;;;19.33;13.43;;;4.80;99.90;;;;;;5030206;28;20192;-93
2020/12/11 04:51:23;;;;;;;17.03;12.43;;;4.90;99.90;;;;;;5021432;28;20207;-94
2020/12/11 04:53:52;;;;;;;20.57;12.40;;;4.90;99.90;;;;;;5019696;28;20243;-94
2020/12/11 04:56:20;;;;;;;21.37;12.83;;;5.00;99.90;;;;;;5023706;28;20176;-94
2020/12/11 04:58:50;;;;;;;14.77;11.47;;;5.00;99.90;;;;;;5019228;28;20184;-92
2020/12/11 05:01:27;;;;;;;19.93;12.30;;;5.10;99.90;;;;;;5018674;28;20172;-94
2020/12/11 05:03:54;;;;;;;18.80;12.87;;;5.10;99.90;;;;;;5018978;28;20168;-94
2020/12/11 05:06:20;;;;;;;16.30;12.23;;;5.30;99.90;;;;;;5008740;28;20187;-94
2020/12/11 05:08:45;;;;;;;13.77;10.90;;;5.10;99.90;;;;;;5016531;28;20189;-92
2020/12/11 05:11:26;;;;;;;17.73;11.53;;;5.10;99.90;;;;;;5058035;28;20212;-94
2020/12/11 05:13:51;;;;;;;14.27;11.17;;;5.10;99.90;;;;;;5040248;28;20168;-93
2020/12/11 05:16:17;;;;;;;14.13;10.10;;;5.10;99.90;;;;;;5003834;28;20180;-94
2020/12/11 05:18:43;;;;;;;13.97;11.10;;;5.10;99.90;;;;;;5004785;28;20176;-92
2020/12/11 05:21:26;;;;;;;11.60;9.97;;;5.20;99.90;;;;;;5019956;28;20203;-93
2020/12/11 05:24:04;;;;;;;11.93;10.10;;;5.20;99.90;;;;;;5021462;28;20172;-94
2020/12/11 05:26:33;;;;;;;21.93;11.93;;;5.20;99.90;;;;;;5019567;28;20199;-93
2020/12/11 05:29:00;;;;;;;15.97;10.90;;;5.20;99.90;;;;;;5018583;28;20211;-92
2020/12/11 05:31:26;;;;;;;15.67;10.87;;;5.10;99.90;;;;;;5018562;28;20218;-92
2020/12/11 05:34:21;;;;;;;16.67;11.33;;;5.10;99.90;;;;;;5018460;28;20167;-93
2020/12/11 05:36:52;;;;;;;11.97;9.70;;;5.20;99.90;;;;;;4986154;28;20192;-93
2020/12/11 05:39:37;;;;;;;12.37;10.23;;;5.10;99.90;;;;;;5017790;28;20191;-94
2020/12/11 05:42:10;;;;;;;13.73;10.63;;;5.10;99.90;;;;;;4997670;28;20630;-93
2020/12/11 05:44:36;;;;;;;15.03;10.83;;;5.10;99.90;;;;;;4982251;28;20180;-92
2020/12/11 05:47:25;;;;;;;11.60;9.33;;;5.10;99.90;;;;;;5001148;28;20169;-93
2020/12/11 05:49:51;;;;;;;11.10;10.00;;;5.20;99.90;;;;;;5014970;28;20204;-93
2020/12/11 05:52:24;;;;;;;15.30;9.73;;;5.20;99.90;;;;;;5017593;28;20180;-93
2020/12/11 05:54:55;;;;;;;10.47;9.27;;;5.30;99.90;;;;;;5001485;28;20186;-92
2020/12/11 05:57:22;;;;;;;14.13;9.63;;;5.20;99.90;;;;;;5017452;28;20176;-92
2020/12/11 05:59:48;;;;;;;13.43;9.40;;;5.20;99.90;;;;;;5001440;28;20538;-93
2020/12/11 06:02:18;;;;;;;10.57;9.53;;;5.20;99.90;;;;;;4998020;28;20235;-93
2020/12/11 06:04:46;;;;;;;10.37;8.63;;;5.30;99.90;;;;;;5014331;28;20168;-93
2020/12/11 06:07:13;;;;;;;10.70;9.13;;;5.20;99.90;;;;;;5014129;28;20200;-93
2020/12/11 06:09:41;;;;;;;10.43;9.30;;;5.20;99.90;;;;;;5015395;28;20204;-91
2020/12/11 06:12:09;;;;;;;12.70;9.47;;;5.30;99.90;;;;;;5016867;28;20267;-93
2020/12/11 06:14:57;;;;;;;9.47;8.57;;;5.30;99.90;;;;;;5016940;28;20172;-93
2020/12/11 06:17:25;;;;;;;8.47;7.63;;;5.30;99.90;;;;;;5016968;28;20183;-92
2020/12/11 06:19:55;;;;;;;9.23;8.33;;;5.30;99.90;;;;;;5016916;28;20234;-92
2020/12/11 06:22:21;;;;;;;9.00;8.07;;;5.30;99.90;;;;;;5035024;28;20168;-94
2020/12/11 06:24:47;;;;;;;9.37;8.00;;;5.30;99.90;;;;;;5016772;28;20197;-92
2020/12/11 06:27:13;;;;;;;11.53;9.77;;;5.20;99.90;;;;;;5016824;28;20286;-92
2020/12/11 06:29:41;;;;;;;9.97;8.97;;;5.10;99.90;;;;;;5017514;28;20214;-92
2020/12/11 06:32:08;;;;;;;12.30;9.93;;;5.00;99.90;;;;;;5019123;28;20179;-93
2020/12/11 06:34:34;;;;;;;11.17;10.00;;;5.10;99.90;;;;;;4997483;28;20187;-94
2020/12/11 06:37:00;;;;;;;12.30;9.83;;;5.00;99.90;;;;;;5019270;28;20173;-94
2020/12/11 06:39:39;;;;;;;9.90;8.90;;;5.10;99.90;;;;;;5018546;28;20226;-94
2020/12/11 06:42:09;;;;;;;13.33;9.73;;;5.10;99.90;;;;;;5022937;28;20169;-93
2020/12/11 06:44:35;;;;;;;9.40;8.50;;;5.00;99.90;;;;;;5022130;28;20226;-94
2020/12/11 06:47:05;;;;;;;10.33;8.73;;;5.00;99.90;;;;;;5021077;28;20621;-94
2020/12/11 06:49:30;;;;;;;10.63;9.00;;;5.10;99.90;;;;;;5021319;28;20214;-94
2020/12/11 06:51:56;;;;;;;9.27;8.10;;;5.10;99.90;;;;;;5004590;28;20540;-93
2020/12/11 06:54:22;;;;;;;9.43;7.80;;;5.10;99.90;;;;;;5023488;28;20180;-93
2020/12/11 06:56:59;;;;;;;9.57;8.57;;;5.20;99.90;;;;;;5021408;28;20183;-94
2020/12/11 06:59:31;;;;;;;8.67;7.77;;;5.30;99.90;;;;;;5020646;28;20272;-93
2020/12/11 07:02:04;;;;;;;8.90;8.00;;;5.20;99.90;;;;;;5020739;28;20172;-94
2020/12/11 07:04:40;;;;;;;8.80;7.90;;;5.20;99.90;;;;;;5020653;28;20274;-94
2020/12/11 07:07:06;;;;;;;9.37;8.40;;;5.30;99.90;;;;;;5020909;28;20188;-93
2020/12/11 07:09:41;;;;;;;10.03;9.03;;;5.40;99.90;;;;;;5038496;28;20200;-94
2020/12/11 07:12:07;;;;;;;11.67;7.53;;;5.30;99.90;;;;;;5021249;28;20174;-94
2020/12/11 07:14:33;;;;;;;8.57;7.63;;;5.30;99.90;;;;;;5040766;28;20198;-94
2020/12/11 07:17:00;;;;;;;8.83;7.30;;;5.30;99.90;;;;;;5040455;28;20243;-92
2020/12/11 07:19:26;;;;;;;8.13;7.33;;;5.30;99.90;;;;;;5022941;28;20192;-93
2020/12/11 07:21:53;;;;;;;8.77;7.73;;;5.30;99.90;;;;;;5033279;28;20176;-94
2020/12/11 07:24:20;;;;;;;9.10;7.77;;;5.30;99.90;;;;;;5022920;28;20267;-94
2020/12/11 07:26:46;;;;;;;10.25;9.25;;;5.30;99.90;;;;;;5024620;28;20417;-93
2020/12/11 07:29:17;;;;;;;9.80;7.97;;;5.30;99.90;;;;;;5015633;28;20439;-93
2020/12/11 07:31:44;;;;;;;8.87;8.07;;;5.40;99.90;;;;;;5032948;28;20174;-92
2020/12/11 07:34:18;;;;;;;9.33;7.43;;;5.50;99.90;;;;;;5042739;28;20149;-93
2020/12/11 07:36:54;;;;;;;7.50;6.80;;;5.40;99.90;;;;;;5024953;28;20200;-93
2020/12/11 07:39:20;;;;;;;7.40;6.30;;;5.40;99.90;;;;;;5017751;28;20179;-93
2020/12/11 07:41:47;;;;;;;6.93;5.90;;;5.30;99.90;;;;;;5031862;28;20169;-93
2020/12/11 07:44:31;;;;;;;7.47;6.77;;;5.40;99.90;;;;;;5036814;28;20239;-93
2020/12/11 07:47:02;;;;;;;6.60;5.87;;;5.40;99.90;;;;;;5031602;28;20163;-94
2020/12/11 07:49:38;;;;;;;6.90;6.27;;;5.50;99.90;;;;;;5045485;28;20200;-93
2020/12/11 07:52:05;;;;;;;6.70;6.10;;;5.50;99.90;;;;;;5032956;28;20171;-94
2020/12/11 07:54:38;;;;;;;6.67;6.07;;;5.60;99.90;;;;;;5015292;28;20168;-91
2020/12/11 07:57:22;;;;;;;6.37;5.73;;;5.60;99.90;;;;;;5035933;28;20172;-93
2020/12/11 08:00:00;;;;;;;5.67;5.17;;;5.60;99.90;;;;;;5036398;28;20186;-94
2020/12/11 08:02:26;;;;;;;9.70;6.63;;;5.70;99.90;;;;;;5032816;28;20585;-93
2020/12/11 08:04:52;;;;;;;6.20;5.67;;;5.60;99.90;;;;;;5036082;28;20176;-94
2020/12/11 08:07:25;;;;;;;8.43;5.70;;;5.60;99.90;;;;;;5034168;28;20176;-93
2020/12/11 08:09:51;;;;;;;6.70;6.10;;;5.60;99.90;;;;;;5013083;28;20197;-92
2020/12/11 08:12:17;;;;;;;6.60;5.97;;;5.70;99.90;;;;;;5014688;28;20244;-93
2020/12/11 08:14:47;;;;;;;7.53;5.80;;;5.70;99.90;;;;;;5043366;28;20621;-92
2020/12/11 08:17:14;;;;;;;9.33;6.33;;;5.70;99.90;;;;;;5017189;28;20167;-92
2020/12/11 08:19:42;;;;;;;10.53;6.23;;;5.70;99.90;;;;;;5016454;28;20683;-92
2020/12/11 08:22:16;;;;;;;7.53;5.70;;;5.70;99.90;;;;;;5016266;28;20172;-91
2020/12/11 08:24:45;;;;;;;8.47;6.60;;;5.70;99.90;;;;;;5033259;28;20167;-92
2020/12/11 08:27:28;;;;;;;7.22;6.63;;;5.70;99.90;;;;;;5031929;28;20417;-93
2020/12/11 08:30:12;;;;;;;7.80;7.10;;;5.70;99.90;;;;;;5028142;28;20457;-90
2020/12/11 08:32:38;;;;;;;14.20;7.17;;;5.70;99.90;;;;;;5025575;28;20188;-90
2020/12/11 08:35:21;;;;;;;6.40;5.80;;;5.80;99.90;;;;;;5032896;28;20179;-90
2020/12/11 08:37:55;;;;;;;6.90;5.67;;;5.80;99.90;;;;;;5030518;28;20164;-90
2020/12/11 08:40:22;;;;;;;8.73;6.63;;;5.80;99.90;;;;;;5033411;28;20268;-92
2020/12/11 08:43:25;;;;;;;6.57;5.97;;;5.90;99.90;;;;;;5032525;28;20179;-91
2020/12/11 08:51:53;;;;;;;8.20;5.67;;;5.90;99.90;;;;;;5007931;28;20189;-91
2020/12/11 08:54:28;;;;;;;6.00;5.40;;;5.80;99.90;;;;;;5024522;28;20206;-91
2020/12/11 08:56:54;;;;;;;7.67;5.63;;;5.80;99.90;;;;;;5033716;28;20167;-92
2020/12/11 08:59:19;;;;;;;5.20;4.80;;;6.00;99.90;;;;;;5015984;28;20172;-93
2020/12/11 09:01:46;;;;;;;5.53;5.10;;;5.90;99.90;;;;;;5012686;28;20199;-92
2020/12/11 09:04:15;;;;;;;6.67;5.13;;;5.80;99.90;;;;;;5015778;28;20249;-91
2020/12/11 09:06:44;;;;;;;7.40;5.23;;;5.90;99.90;;;;;;5015342;28;20260;-90
2020/12/11 09:09:10;;;;;;;7.40;4.97;;;5.80;99.90;;;;;;5046953;28;20190;-91
2020/12/11 09:11:36;;;;;;;5.10;4.60;;;5.90;99.90;;;;;;5029649;28;20244;-90
2020/12/11 09:14:01;;;;;;;5.23;4.73;;;5.90;99.90;;;;;;5028151;28;20230;-92
2020/12/11 09:16:27;;;;;;;5.20;4.53;;;6.00;99.90;;;;;;5028806;28;20640;-91
2020/12/11 09:18:53;;;;;;;5.93;4.40;;;6.10;99.90;;;;;;5028427;28;20183;-90
2020/12/11 09:21:19;;;;;;;4.63;4.23;;;6.20;99.90;;;;;;5026076;28;20172;-90
2020/12/11 09:23:44;;;;;;;7.23;4.13;;;6.10;99.90;;;;;;5011342;28;20176;-90
2020/12/11 09:26:12;;;;;;;6.27;4.47;;;6.20;99.90;;;;;;5023074;28;20168;-89
2020/12/11 09:28:40;;;;;;;5.13;4.20;;;6.30;99.90;;;;;;5004610;28;20180;-89
2020/12/11 09:31:05;;;;;;;6.23;4.03;;;6.30;99.90;;;;;;5019497;28;20212;-91
2020/12/11 09:33:36;;;;;;;4.10;3.80;;;6.30;99.90;;;;;;5019172;28;20174;-89
2020/12/11 09:36:03;;;;;;;7.67;4.03;;;6.30;99.90;;;;;;5018780;28;20267;-88
2020/12/11 09:38:29;;;;;;;4.77;3.83;;;6.30;99.90;;;;;;5019174;28;20236;-88
2020/12/11 09:41:00;;;;;;;6.60;4.03;;;6.30;99.90;;;;;;5026483;28;20187;-88
2020/12/11 09:49:09;;;;;;;4.07;3.77;;;6.30;99.90;;;;;;5038435;28;20168;-86
2020/12/11 09:51:54;;;;;;;3.50;3.20;;;6.30;99.90;;;;;;5016110;28;20211;-87
2020/12/11 09:54:24;;;;;;;3.40;3.10;;;6.40;99.90;;;;;;5003750;28;20172;-87
2020/12/11 09:56:50;;;;;;;9.63;3.93;;;6.40;99.90;;;;;;5001928;28;20203;-86
2020/12/11 09:59:19;;;;;;;4.30;3.90;;;6.40;99.90;;;;;;5032650;28;20178;-88
2020/12/11 10:04:30;;;;;;;3.53;3.33;;;6.30;99.90;;;;;;5044553;28;20215;-87
2020/12/11 10:06:55;;;;;;;3.90;3.60;;;6.40;99.90;;;;;;5001458;28;20172;-87
2020/12/11 10:09:21;;;;;;;5.83;3.13;;;6.50;99.90;;;;;;5016948;28;20178;-87
2020/12/11 10:11:53;;;;;;;3.93;3.43;;;6.60;99.90;;;;;;5000133;28;20198;-87
2020/12/11 10:14:30;;;;;;;3.43;3.13;;;6.60;99.90;;;;;;5021341;28;20167;-87
2020/12/11 10:16:56;;;;;;;3.20;2.90;;;6.60;99.90;;;;;;5024007;28;20168;-87
2020/12/11 10:19:22;;;;;;;4.77;3.73;;;6.60;99.90;;;;;;5011639;28;20188;-87
2020/12/11 10:21:49;;;;;;;5.13;3.17;;;6.60;99.90;;;;;;5011435;28;20168;-87
2020/12/11 10:24:17;;;;;;;3.90;3.53;;;6.70;99.90;;;;;;4995483;28;20249;-87
2020/12/11 10:26:43;;;;;;;4.90;2.70;;;6.60;99.90;;;;;;5029330;28;20168;-88
2020/12/11 10:29:09;;;;;;;5.73;3.10;;;6.50;99.90;;;;;;5012090;28;20183;-88
2020/12/11 10:31:35;;;;;;;4.07;3.27;;;6.60;99.90;;;;;;5045705;28;20207;-87
2020/12/11 10:34:01;;;;;;;3.67;2.40;;;6.70;99.90;;;;;;5010748;28;20239;-88
2020/12/11 10:36:33;;;;;;;3.80;3.50;;;6.60;99.90;;;;;;5026752;28;20172;-87
2020/12/11 10:38:59;;;;;;;5.43;3.10;;;6.70;99.90;;;;;;5027160;28;20172;-87
2020/12/11 10:41:26;;;;;;;3.33;2.73;;;6.60;99.90;;;;;;5027759;28;20168;-87
2020/12/11 10:43:52;;;;;;;5.63;2.90;;;6.70;99.90;;;;;;5028095;28;20168;-87
2020/12/11 10:46:19;;;;;;;5.73;2.60;;;6.80;99.90;;;;;;5029750;28;20617;-87
2020/12/11 10:48:44;;;;;;;4.03;2.90;;;6.80;99.90;;;;;;5014445;28;20184;-89
2020/12/11 10:51:16;;;;;;;6.80;2.43;;;6.70;99.90;;;;;;5009449;28;20267;-88
2020/12/11 10:53:42;;;;;;;5.13;2.73;;;6.80;99.90;;;;;;5016110;28;20176;-86
2020/12/11 10:56:13;;;;;;;5.70;3.00;;;6.70;99.90;;;;;;5027395;28;20191;-88
2020/12/11 10:58:39;;;;;;;5.80;3.20;;;6.70;99.90;;;;;;5024645;28;20180;-87
2020/12/11 11:01:06;;;;;;;6.17;3.20;;;6.90;99.90;;;;;;5034244;28;20179;-86
2020/12/11 11:03:33;;;;;;;5.07;3.10;;;7.00;99.90;;;;;;5040356;28;20171;-87
2020/12/11 11:06:10;;;;;;;5.20;3.30;;;7.00;99.90;;;;;;5024905;28;20163;-86
2020/12/11 11:08:45;;;;;;;3.03;2.83;;;7.00;99.90;;;;;;5040985;28;20164;-86
2020/12/11 11:11:11;;;;;;;4.03;2.80;;;7.10;99.90;;;;;;5025244;28;20219;-86
2020/12/11 11:13:51;;;;;;;3.03;2.73;;;7.10;99.90;;;;;;5021314;28;20183;-86
2020/12/11 11:16:24;;;;;;;5.37;2.67;;;7.10;99.90;;;;;;5017063;28;20188;-88
2020/12/11 11:19:01;;;;;;;3.30;3.00;;;7.20;99.90;;;;;;5032908;28;20180;-88
2020/12/11 11:27:09;;;;;;;3.53;3.13;;;7.40;99.90;;;;;;5032919;28;20212;-86
2020/12/11 11:29:35;;;;;;;3.23;2.93;;;7.50;99.90;;;;;;5034118;28;20191;-87
2020/12/11 11:32:01;;;;;;;2.67;2.27;;;7.60;99.90;;;;;;5032226;28;20623;-88
2020/12/11 11:34:26;;;;;;;3.00;2.70;;;7.50;99.90;;;;;;5007519;28;20177;-88
2020/12/11 11:36:53;;;;;;;3.03;2.60;;;7.50;99.90;;;;;;5022194;28;20226;-87
2020/12/11 11:39:19;;;;;;;2.67;2.47;;;7.40;99.90;;;;;;5021282;28;20181;-88
2020/12/11 11:41:46;;;;;;;5.17;2.70;;;7.40;99.90;;;;;;5050197;28;20168;-87
2020/12/11 11:46:48;;;;;;;2.93;2.73;;;7.30;99.90;;;;;;5019281;28;20252;-88
2020/12/11 11:49:18;;;;;;;3.50;3.17;;;7.30;99.90;;;;;;5020463;28;20180;-88
2020/12/11 11:51:57;;;;;;;2.97;2.70;;;7.50;99.90;;;;;;5004097;28;20660;-88
2020/12/11 11:54:23;;;;;;;2.73;2.53;;;7.50;99.90;;;;;;5007708;28;20222;-88
2020/12/11 11:56:49;;;;;;;3.47;3.00;;;7.50;99.90;;;;;;5027111;28;20172;-89
2020/12/11 11:59:15;;;;;;;5.07;2.57;;;7.40;99.90;;;;;;5021567;28;20257;-88
2020/12/11 12:01:40;;;;;;;2.87;2.67;;;7.30;99.90;;;;;;5005091;28;20199;-88
2020/12/11 12:04:06;;;;;;;4.00;2.77;;;7.20;99.90;;;;;;5004634;28;20176;-88
2020/12/11 12:06:32;;;;;;;2.63;2.40;;;7.30;99.90;;;;;;5005212;28;20195;-87
2020/12/11 12:08:57;;;;;;;4.03;3.20;;;7.40;99.90;;;;;;5023398;28;20180;-88
2020/12/11 12:11:23;;;;;;;3.33;3.07;;;7.50;99.90;;;;;;5040178;28;20192;-88
2020/12/11 12:13:49;;;;;;;7.03;3.43;;;7.60;99.90;;;;;;5037926;28;20182;-86
2020/12/11 12:16:17;;;;;;;3.13;2.77;;;7.80;99.90;;;;;;5004383;28;20638;-88
2020/12/11 12:18:45;;;;;;;4.57;2.80;;;7.80;99.90;;;;;;5000688;28;20176;-88
2020/12/11 12:21:26;;;;;;;2.90;2.70;;;7.80;99.90;;;;;;4997522;28;20202;-87
2020/12/11 12:29:11;;;;;;;3.20;2.90;;;7.80;99.90;;;;;;5042423;28;20276;-88
2020/12/11 12:31:49;;;;;;;2.73;2.53;;;7.80;99.90;;;;;;5026596;28;20235;-87
2020/12/11 12:34:34;;;;;;;3.03;2.80;;;7.70;99.90;;;;;;5036725;28;20168;-88
2020/12/11 12:37:16;;;;;;;2.77;2.57;;;7.70;99.90;;;;;;5005483;28;20206;-88
2020/12/11 12:44:38;;;;;;;6.77;3.60;;;7.60;99.90;;;;;;5035077;28;20542;-87
2020/12/11 12:47:03;;;;;;;3.37;3.07;;;7.60;99.90;;;;;;5003621;28;20176;-87
2020/12/11 12:49:29;;;;;;;4.80;3.23;;;7.70;99.90;;;;;;5018424;28;20341;-87
2020/12/11 12:51:54;;;;;;;3.90;3.23;;;7.60;99.90;;;;;;5002888;28;20218;-86
2020/12/11 12:54:20;;;;;;;3.40;3.10;;;7.60;99.90;;;;;;5019675;28;20180;-87
2020/12/11 12:56:51;;;;;;;2.97;2.77;;;7.70;99.90;;;;;;5002988;28;20266;-87
2020/12/11 13:00:10;;;;;;;3.90;2.80;;;7.70;99.90;;;;;;5037580;28;20172;-87
2020/12/11 13:07:18;;;;;;;5.87;3.20;;;7.70;99.90;;;;;;5036720;28;20168;-86
2020/12/11 13:09:43;;;;;;;8.47;3.10;;;7.80;99.90;;;;;;5003613;28;20215;-87
2020/12/11 13:12:09;;;;;;;5.33;3.13;;;7.80;99.90;;;;;;5027512;28;20172;-86
2020/12/11 13:14:35;;;;;;;4.17;3.50;;;7.70;99.90;;;;;;5005767;28;20267;-86
2020/12/11 13:17:02;;;;;;;5.07;3.53;;;7.80;99.90;;;;;;5020785;28;20630;-86
2020/12/11 13:19:30;;;;;;;3.93;3.20;;;7.70;99.90;;;;;;5018761;28;20180;-86
2020/12/11 13:27:17;;;;;;;3.27;2.97;;;7.90;99.90;;;;;;5006195;28;20186;-86
2020/12/11 13:29:42;;;;;;;3.60;3.30;;;8.10;99.90;;;;;;5003884;28;20282;-87
2020/12/11 13:32:08;;;;;;;3.57;3.00;;;8.10;99.90;;;;;;4985968;28;20173;-86
2020/12/11 13:34:35;;;;;;;7.23;4.07;;;8.00;99.90;;;;;;4982692;28;20676;-86
2020/12/11 13:37:01;;;;;;;5.13;3.10;;;8.00;99.90;;;;;;4990066;28;20660;-86